Iatan, Texas
Current Conditions -  °F | °C
As of 6:15 AM on Sunday 23 Nov 2014 (Local Time) from KBPG Reporting Station
Clear Clear  
Wind Chill: 43°   Ceiling: Unl
Heat Index: 46°   Visibility: 10mi
Dew Point: 37°   Wind: 6mph
Humidity: 70%   Direction: 190°S
Pressure: 29.66"   Gusts: NA
Location:  32.2845°N, 101.031°W
Report Text: KBPG 231215Z AUTO 19005KT 10SM CLR 08/03 A2966 RMK AO2 T00770025
Loading
Personal Weather Stations






























Interactive Weather Map New forecast layout! Learn more

10-Day Weather Forecast

Advertisements
Track Severe Weather on mobile